sensor_id;sensor_type;location;lat;lon;timestamp;P1;durP1;ratioP1;P2;durP2;ratioP2
23416;SDS011;11881;42.432;25.632;2023-11-21T00:00:00;3.47;;;1.27;;
23416;SDS011;11881;42.432;25.632;2023-11-21T00:02:25;3.27;;;1.40;;
23416;SDS011;11881;42.432;25.632;2023-11-21T00:04:52;2.97;;;1.40;;
23416;SDS011;11881;42.432;25.632;2023-11-21T00:07:17;3.30;;;1.53;;
23416;SDS011;11881;42.432;25.632;2023-11-21T00:09:43;2.43;;;1.30;;
23416;SDS011;11881;42.432;25.632;2023-11-21T00:12:08;4.17;;;2.03;;
23416;SDS011;11881;42.432;25.632;2023-11-21T00:14:37;4.50;;;1.50;;
23416;SDS011;11881;42.432;25.632;2023-11-21T00:17:03;3.20;;;2.00;;
23416;SDS011;11881;42.432;25.632;2023-11-21T00:19:29;4.10;;;1.90;;
23416;SDS011;11881;42.432;25.632;2023-11-21T00:21:54;3.33;;;1.60;;
23416;SDS011;11881;42.432;25.632;2023-11-21T00:24:20;1.80;;;1.33;;
23416;SDS011;11881;42.432;25.632;2023-11-21T00:26:45;3.40;;;1.53;;
23416;SDS011;11881;42.432;25.632;2023-11-21T00:29:13;1.93;;;1.10;;
23416;SDS011;11881;42.432;25.632;2023-11-21T00:31:39;1.60;;;1.00;;
23416;SDS011;11881;42.432;25.632;2023-11-21T00:34:04;1.77;;;1.00;;
23416;SDS011;11881;42.432;25.632;2023-11-21T00:36:33;3.00;;;1.03;;
23416;SDS011;11881;42.432;25.632;2023-11-21T00:38:58;1.23;;;0.80;;
23416;SDS011;11881;42.432;25.632;2023-11-21T00:41:24;2.20;;;0.80;;
23416;SDS011;11881;42.432;25.632;2023-11-21T00:43:52;2.17;;;1.00;;
23416;SDS011;11881;42.432;25.632;2023-11-21T00:46:18;1.67;;;0.87;;
23416;SDS011;11881;42.432;25.632;2023-11-21T00:48:44;2.73;;;0.80;;
23416;SDS011;11881;42.432;25.632;2023-11-21T00:51:09;1.30;;;0.93;;
23416;SDS011;11881;42.432;25.632;2023-11-21T00:53:35;1.17;;;0.80;;
23416;SDS011;11881;42.432;25.632;2023-11-21T00:56:00;3.83;;;0.90;;
23416;SDS011;11881;42.432;25.632;2023-11-21T00:58:26;2.10;;;0.80;;
23416;SDS011;11881;42.432;25.632;2023-11-21T01:00:52;0.93;;;0.80;;
23416;SDS011;11881;42.432;25.632;2023-11-21T01:03:18;2.23;;;0.73;;
23416;SDS011;11881;42.432;25.632;2023-11-21T01:05:43;2.67;;;1.00;;
23416;SDS011;11881;42.432;25.632;2023-11-21T01:08:10;1.47;;;0.90;;
23416;SDS011;11881;42.432;25.632;2023-11-21T01:10:36;1.57;;;0.80;;
23416;SDS011;11881;42.432;25.632;2023-11-21T01:13:01;4.40;;;1.20;;
23416;SDS011;11881;42.432;25.632;2023-11-21T01:15:30;1.90;;;1.10;;
23416;SDS011;11881;42.432;25.632;2023-11-21T01:17:56;2.40;;;1.30;;
23416;SDS011;11881;42.432;25.632;2023-11-21T01:20:22;2.60;;;1.30;;
23416;SDS011;11881;42.432;25.632;2023-11-21T01:22:47;3.50;;;1.60;;
23416;SDS011;11881;42.432;25.632;2023-11-21T01:25:14;4.73;;;1.80;;
23416;SDS011;11881;42.432;25.632;2023-11-21T01:27:41;2.67;;;1.50;;
23416;SDS011;11881;42.432;25.632;2023-11-21T01:30:07;4.20;;;1.97;;
23416;SDS011;11881;42.432;25.632;2023-11-21T01:32:34;4.37;;;1.77;;
23416;SDS011;11881;42.432;25.632;2023-11-21T01:35:01;5.40;;;1.90;;
23416;SDS011;11881;42.432;25.632;2023-11-21T01:37:26;4.27;;;2.70;;
23416;SDS011;11881;42.432;25.632;2023-11-21T01:39:53;5.50;;;2.47;;
23416;SDS011;11881;42.432;25.632;2023-11-21T01:42:20;6.83;;;2.10;;
23416;SDS011;11881;42.432;25.632;2023-11-21T01:44:46;7.30;;;2.73;;
23416;SDS011;11881;42.432;25.632;2023-11-21T01:47:11;11.50;;;4.60;;
23416;SDS011;11881;42.432;25.632;2023-11-21T01:49:38;9.63;;;4.40;;
23416;SDS011;11881;42.432;25.632;2023-11-21T01:52:04;9.33;;;5.13;;
23416;SDS011;11881;42.432;25.632;2023-11-21T01:54:30;9.40;;;4.70;;
23416;SDS011;11881;42.432;25.632;2023-11-21T01:56:57;10.43;;;4.60;;
23416;SDS011;11881;42.432;25.632;2023-11-21T01:59:29;9.10;;;4.20;;
23416;SDS011;11881;42.432;25.632;2023-11-21T02:01:59;11.90;;;4.20;;
23416;SDS011;11881;42.432;25.632;2023-11-21T02:04:24;8.07;;;4.60;;
23416;SDS011;11881;42.432;25.632;2023-11-21T02:06:50;7.47;;;4.13;;
23416;SDS011;11881;42.432;25.632;2023-11-21T02:09:16;9.70;;;4.33;;
23416;SDS011;11881;42.432;25.632;2023-11-21T02:11:42;12.23;;;4.23;;
23416;SDS011;11881;42.432;25.632;2023-11-21T02:14:09;7.60;;;3.50;;
23416;SDS011;11881;42.432;25.632;2023-11-21T02:16:35;8.23;;;4.00;;
23416;SDS011;11881;42.432;25.632;2023-11-21T02:19:02;9.20;;;3.30;;
23416;SDS011;11881;42.432;25.632;2023-11-21T02:21:34;8.17;;;3.27;;
23416;SDS011;11881;42.432;25.632;2023-11-21T02:24:01;8.30;;;3.27;;
23416;SDS011;11881;42.432;25.632;2023-11-21T02:26:26;6.23;;;2.97;;
23416;SDS011;11881;42.432;25.632;2023-11-21T02:28:52;6.47;;;2.87;;
23416;SDS011;11881;42.432;25.632;2023-11-21T02:31:18;5.77;;;2.27;;
23416;SDS011;11881;42.432;25.632;2023-11-21T02:33:44;4.63;;;2.57;;
23416;SDS011;11881;42.432;25.632;2023-11-21T02:36:09;3.43;;;1.90;;
23416;SDS011;11881;42.432;25.632;2023-11-21T02:38:35;4.97;;;2.27;;
23416;SDS011;11881;42.432;25.632;2023-11-21T02:41:00;3.77;;;1.90;;
23416;SDS011;11881;42.432;25.632;2023-11-21T02:43:26;6.00;;;2.10;;
23416;SDS011;11881;42.432;25.632;2023-11-21T02:45:51;3.33;;;2.00;;
23416;SDS011;11881;42.432;25.632;2023-11-21T02:48:16;2.60;;;1.70;;
23416;SDS011;11881;42.432;25.632;2023-11-21T02:50:42;2.60;;;1.87;;
23416;SDS011;11881;42.432;25.632;2023-11-21T02:53:08;3.30;;;1.80;;
23416;SDS011;11881;42.432;25.632;2023-11-21T02:55:35;4.27;;;1.80;;
23416;SDS011;11881;42.432;25.632;2023-11-21T02:58:01;5.30;;;1.60;;
23416;SDS011;11881;42.432;25.632;2023-11-21T03:00:28;3.37;;;1.80;;
23416;SDS011;11881;42.432;25.632;2023-11-21T03:02:55;2.90;;;1.90;;
23416;SDS011;11881;42.432;25.632;2023-11-21T03:05:21;3.30;;;1.63;;
23416;SDS011;11881;42.432;25.632;2023-11-21T03:07:46;4.40;;;1.90;;
23416;SDS011;11881;42.432;25.632;2023-11-21T03:10:12;5.07;;;1.70;;
23416;SDS011;11881;42.432;25.632;2023-11-21T03:12:38;2.53;;;1.70;;
23416;SDS011;11881;42.432;25.632;2023-11-21T03:15:07;2.70;;;1.67;;
23416;SDS011;11881;42.432;25.632;2023-11-21T03:17:33;3.20;;;1.70;;
23416;SDS011;11881;42.432;25.632;2023-11-21T03:19:59;4.10;;;2.00;;
23416;SDS011;11881;42.432;25.632;2023-11-21T03:22:25;3.17;;;1.63;;
23416;SDS011;11881;42.432;25.632;2023-11-21T03:24:51;7.13;;;2.03;;
23416;SDS011;11881;42.432;25.632;2023-11-21T03:27:17;4.97;;;2.40;;
23416;SDS011;11881;42.432;25.632;2023-11-21T03:29:43;5.73;;;2.20;;
23416;SDS011;11881;42.432;25.632;2023-11-21T03:32:10;6.30;;;2.80;;
23416;SDS011;11881;42.432;25.632;2023-11-21T03:34:35;6.40;;;2.27;;
23416;SDS011;11881;42.432;25.632;2023-11-21T03:37:17;6.33;;;2.30;;
23416;SDS011;11881;42.432;25.632;2023-11-21T03:39:43;4.00;;;2.00;;
23416;SDS011;11881;42.432;25.632;2023-11-21T03:42:08;3.30;;;2.00;;
23416;SDS011;11881;42.432;25.632;2023-11-21T03:44:34;4.17;;;2.00;;
23416;SDS011;11881;42.432;25.632;2023-11-21T03:46:59;3.03;;;1.60;;
23416;SDS011;11881;42.432;25.632;2023-11-21T03:49:24;5.93;;;1.87;;
23416;SDS011;11881;42.432;25.632;2023-11-21T03:51:50;3.57;;;1.77;;
23416;SDS011;11881;42.432;25.632;2023-11-21T03:54:15;3.60;;;1.87;;
23416;SDS011;11881;42.432;25.632;2023-11-21T03:56:41;2.83;;;1.67;;
23416;SDS011;11881;42.432;25.632;2023-11-21T03:59:06;3.97;;;1.60;;
23416;SDS011;11881;42.432;25.632;2023-11-21T04:01:32;4.00;;;1.70;;
23416;SDS011;11881;42.432;25.632;2023-11-21T04:03:58;2.93;;;1.60;;
23416;SDS011;11881;42.432;25.632;2023-11-21T04:06:23;3.47;;;1.53;;
23416;SDS011;11881;42.432;25.632;2023-11-21T04:08:49;3.63;;;1.97;;
23416;SDS011;11881;42.432;25.632;2023-11-21T04:11:14;5.67;;;2.10;;
23416;SDS011;11881;42.432;25.632;2023-11-21T04:13:40;3.83;;;1.80;;
23416;SDS011;11881;42.432;25.632;2023-11-21T04:16:07;3.83;;;2.70;;
23416;SDS011;11881;42.432;25.632;2023-11-21T04:18:34;6.13;;;2.30;;
23416;SDS011;11881;42.432;25.632;2023-11-21T04:21:01;6.43;;;2.27;;
23416;SDS011;11881;42.432;25.632;2023-11-21T04:23:28;6.60;;;2.50;;
23416;SDS011;11881;42.432;25.632;2023-11-21T04:25:54;8.10;;;3.27;;
23416;SDS011;11881;42.432;25.632;2023-11-21T04:28:22;5.33;;;2.60;;
23416;SDS011;11881;42.432;25.632;2023-11-21T04:30:48;6.67;;;2.77;;
23416;SDS011;11881;42.432;25.632;2023-11-21T04:33:13;4.37;;;2.70;;
23416;SDS011;11881;42.432;25.632;2023-11-21T04:35:39;7.30;;;2.93;;
23416;SDS011;11881;42.432;25.632;2023-11-21T04:38:04;8.83;;;3.90;;
23416;SDS011;11881;42.432;25.632;2023-11-21T04:40:29;5.70;;;4.23;;
23416;SDS011;11881;42.432;25.632;2023-11-21T04:42:55;5.87;;;4.27;;
23416;SDS011;11881;42.432;25.632;2023-11-21T04:45:22;6.80;;;3.47;;
23416;SDS011;11881;42.432;25.632;2023-11-21T04:47:48;5.97;;;3.17;;
23416;SDS011;11881;42.432;25.632;2023-11-21T04:50:13;6.90;;;2.83;;
23416;SDS011;11881;42.432;25.632;2023-11-21T04:52:38;7.03;;;2.13;;
23416;SDS011;11881;42.432;25.632;2023-11-21T04:55:04;3.30;;;1.63;;
23416;SDS011;11881;42.432;25.632;2023-11-21T04:57:31;2.40;;;1.60;;
23416;SDS011;11881;42.432;25.632;2023-11-21T04:59:57;2.20;;;1.50;;
23416;SDS011;11881;42.432;25.632;2023-11-21T05:02:22;3.77;;;1.37;;
23416;SDS011;11881;42.432;25.632;2023-11-21T05:04:48;3.53;;;1.50;;
23416;SDS011;11881;42.432;25.632;2023-11-21T05:07:13;2.27;;;1.20;;
23416;SDS011;11881;42.432;25.632;2023-11-21T05:09:42;2.70;;;1.50;;
23416;SDS011;11881;42.432;25.632;2023-11-21T05:12:11;6.17;;;1.40;;
23416;SDS011;11881;42.432;25.632;2023-11-21T05:14:38;3.50;;;1.60;;
23416;SDS011;11881;42.432;25.632;2023-11-21T05:17:03;2.33;;;1.63;;
23416;SDS011;11881;42.432;25.632;2023-11-21T05:19:33;3.20;;;1.77;;
23416;SDS011;11881;42.432;25.632;2023-11-21T05:21:59;3.80;;;2.10;;
23416;SDS011;11881;42.432;25.632;2023-11-21T05:24:25;4.37;;;1.97;;
23416;SDS011;11881;42.432;25.632;2023-11-21T05:26:51;3.50;;;2.10;;
23416;SDS011;11881;42.432;25.632;2023-11-21T05:29:16;7.93;;;1.97;;
23416;SDS011;11881;42.432;25.632;2023-11-21T05:31:42;4.37;;;2.20;;
23416;SDS011;11881;42.432;25.632;2023-11-21T05:34:07;4.00;;;2.10;;
23416;SDS011;11881;42.432;25.632;2023-11-21T05:36:33;4.23;;;2.50;;
23416;SDS011;11881;42.432;25.632;2023-11-21T05:38:58;5.90;;;2.80;;
23416;SDS011;11881;42.432;25.632;2023-11-21T05:41:24;7.43;;;3.33;;
23416;SDS011;11881;42.432;25.632;2023-11-21T05:43:50;7.93;;;3.27;;
23416;SDS011;11881;42.432;25.632;2023-11-21T05:46:16;8.07;;;3.33;;
23416;SDS011;11881;42.432;25.632;2023-11-21T05:48:41;8.57;;;4.07;;
23416;SDS011;11881;42.432;25.632;2023-11-21T05:51:07;10.87;;;4.00;;
23416;SDS011;11881;42.432;25.632;2023-11-21T05:53:33;10.60;;;4.70;;
23416;SDS011;11881;42.432;25.632;2023-11-21T05:55:59;15.23;;;4.93;;
23416;SDS011;11881;42.432;25.632;2023-11-21T05:58:25;10.53;;;4.30;;
23416;SDS011;11881;42.432;25.632;2023-11-21T06:00:50;13.10;;;3.90;;
23416;SDS011;11881;42.432;25.632;2023-11-21T06:03:16;19.97;;;3.33;;
23416;SDS011;11881;42.432;25.632;2023-11-21T06:05:42;6.83;;;2.83;;
23416;SDS011;11881;42.432;25.632;2023-11-21T06:08:08;4.43;;;2.47;;
23416;SDS011;11881;42.432;25.632;2023-11-21T06:10:34;7.57;;;2.17;;
23416;SDS011;11881;42.432;25.632;2023-11-21T06:12:59;13.50;;;1.83;;
23416;SDS011;11881;42.432;25.632;2023-11-21T06:15:25;9.37;;;2.40;;
23416;SDS011;11881;42.432;25.632;2023-11-21T06:17:51;9.07;;;2.17;;
23416;SDS011;11881;42.432;25.632;2023-11-21T06:20:19;6.17;;;2.20;;
23416;SDS011;11881;42.432;25.632;2023-11-21T06:22:47;9.23;;;3.37;;
23416;SDS011;11881;42.432;25.632;2023-11-21T06:25:13;11.80;;;4.53;;
23416;SDS011;11881;42.432;25.632;2023-11-21T06:27:46;13.87;;;5.57;;
23416;SDS011;11881;42.432;25.632;2023-11-21T06:30:13;17.50;;;5.90;;
23416;SDS011;11881;42.432;25.632;2023-11-21T06:32:40;18.67;;;5.70;;
23416;SDS011;11881;42.432;25.632;2023-11-21T06:35:06;12.03;;;5.03;;
23416;SDS011;11881;42.432;25.632;2023-11-21T06:37:35;16.53;;;6.33;;
23416;SDS011;11881;42.432;25.632;2023-11-21T06:40:01;15.23;;;6.37;;
23416;SDS011;11881;42.432;25.632;2023-11-21T06:42:28;14.23;;;6.27;;
23416;SDS011;11881;42.432;25.632;2023-11-21T06:44:54;14.00;;;6.83;;
23416;SDS011;11881;42.432;25.632;2023-11-21T06:47:22;23.10;;;7.27;;
23416;SDS011;11881;42.432;25.632;2023-11-21T06:49:52;24.00;;;7.93;;
23416;SDS011;11881;42.432;25.632;2023-11-21T06:52:18;19.90;;;8.60;;
23416;SDS011;11881;42.432;25.632;2023-11-21T06:54:44;16.67;;;8.10;;
23416;SDS011;11881;42.432;25.632;2023-11-21T06:57:10;23.17;;;8.33;;
23416;SDS011;11881;42.432;25.632;2023-11-21T06:59:36;18.10;;;8.50;;
23416;SDS011;11881;42.432;25.632;2023-11-21T07:02:02;17.53;;;8.27;;
23416;SDS011;11881;42.432;25.632;2023-11-21T07:04:27;21.43;;;7.93;;
23416;SDS011;11881;42.432;25.632;2023-11-21T07:06:53;13.60;;;6.40;;
23416;SDS011;11881;42.432;25.632;2023-11-21T07:09:19;17.27;;;5.73;;
23416;SDS011;11881;42.432;25.632;2023-11-21T07:11:48;8.30;;;4.67;;
23416;SDS011;11881;42.432;25.632;2023-11-21T07:14:14;11.00;;;4.77;;
23416;SDS011;11881;42.432;25.632;2023-11-21T07:16:42;18.37;;;6.97;;
23416;SDS011;11881;42.432;25.632;2023-11-21T07:19:07;19.20;;;7.80;;
23416;SDS011;11881;42.432;25.632;2023-11-21T07:21:33;23.50;;;7.77;;
23416;SDS011;11881;42.432;25.632;2023-11-21T07:24:02;19.57;;;8.70;;
23416;SDS011;11881;42.432;25.632;2023-11-21T07:26:29;19.53;;;7.13;;
23416;SDS011;11881;42.432;25.632;2023-11-21T07:29:03;14.50;;;6.13;;
23416;SDS011;11881;42.432;25.632;2023-11-21T07:31:29;15.40;;;6.33;;
23416;SDS011;11881;42.432;25.632;2023-11-21T07:33:55;21.90;;;6.67;;
23416;SDS011;11881;42.432;25.632;2023-11-21T07:36:23;17.27;;;6.23;;
23416;SDS011;11881;42.432;25.632;2023-11-21T07:38:49;15.20;;;6.67;;
23416;SDS011;11881;42.432;25.632;2023-11-21T07:41:17;12.47;;;5.83;;
23416;SDS011;11881;42.432;25.632;2023-11-21T07:43:46;15.13;;;5.43;;
23416;SDS011;11881;42.432;25.632;2023-11-21T07:46:12;13.00;;;5.00;;
23416;SDS011;11881;42.432;25.632;2023-11-21T07:48:38;8.93;;;4.50;;
23416;SDS011;11881;42.432;25.632;2023-11-21T07:51:04;13.50;;;5.00;;
23416;SDS011;11881;42.432;25.632;2023-11-21T07:53:30;16.80;;;4.70;;
23416;SDS011;11881;42.432;25.632;2023-11-21T07:55:56;10.90;;;4.27;;
23416;SDS011;11881;42.432;25.632;2023-11-21T07:58:39;10.17;;;4.23;;
23416;SDS011;11881;42.432;25.632;2023-11-21T08:01:04;11.70;;;3.93;;
23416;SDS011;11881;42.432;25.632;2023-11-21T08:03:30;11.67;;;4.43;;
23416;SDS011;11881;42.432;25.632;2023-11-21T08:05:56;12.63;;;4.53;;
23416;SDS011;11881;42.432;25.632;2023-11-21T08:08:23;8.53;;;3.80;;
23416;SDS011;11881;42.432;25.632;2023-11-21T08:10:49;10.03;;;4.20;;
23416;SDS011;11881;42.432;25.632;2023-11-21T08:13:29;14.33;;;5.40;;
23416;SDS011;11881;42.432;25.632;2023-11-21T08:15:58;17.87;;;5.73;;
23416;SDS011;11881;42.432;25.632;2023-11-21T08:18:27;15.00;;;6.00;;
23416;SDS011;11881;42.432;25.632;2023-11-21T08:20:54;14.90;;;5.40;;
23416;SDS011;11881;42.432;25.632;2023-11-21T08:23:20;14.07;;;5.20;;
23416;SDS011;11881;42.432;25.632;2023-11-21T08:25:50;10.17;;;4.57;;
23416;SDS011;11881;42.432;25.632;2023-11-21T08:28:16;20.13;;;5.20;;
23416;SDS011;11881;42.432;25.632;2023-11-21T08:30:41;15.67;;;4.90;;
23416;SDS011;11881;42.432;25.632;2023-11-21T08:33:07;14.03;;;4.73;;
23416;SDS011;11881;42.432;25.632;2023-11-21T08:35:33;15.43;;;4.80;;
23416;SDS011;11881;42.432;25.632;2023-11-21T08:37:59;12.30;;;4.30;;
23416;SDS011;11881;42.432;25.632;2023-11-21T08:40:25;11.23;;;4.53;;
23416;SDS011;11881;42.432;25.632;2023-11-21T08:42:50;8.83;;;3.97;;
23416;SDS011;11881;42.432;25.632;2023-11-21T08:45:17;10.70;;;4.13;;
23416;SDS011;11881;42.432;25.632;2023-11-21T08:47:43;10.50;;;4.20;;
23416;SDS011;11881;42.432;25.632;2023-11-21T08:50:12;15.13;;;4.20;;
23416;SDS011;11881;42.432;25.632;2023-11-21T08:52:40;6.63;;;2.70;;
23416;SDS011;11881;42.432;25.632;2023-11-21T08:55:07;6.47;;;2.47;;
23416;SDS011;11881;42.432;25.632;2023-11-21T08:57:36;3.77;;;2.00;;
23416;SDS011;11881;42.432;25.632;2023-11-21T09:00:03;7.20;;;2.33;;
23416;SDS011;11881;42.432;25.632;2023-11-21T09:02:32;3.83;;;2.10;;
23416;SDS011;11881;42.432;25.632;2023-11-21T09:04:59;3.70;;;2.00;;
23416;SDS011;11881;42.432;25.632;2023-11-21T09:07:28;3.93;;;2.00;;
23416;SDS011;11881;42.432;25.632;2023-11-21T09:09:54;4.60;;;1.70;;
23416;SDS011;11881;42.432;25.632;2023-11-21T09:12:20;3.43;;;1.70;;
23416;SDS011;11881;42.432;25.632;2023-11-21T09:14:46;2.63;;;1.57;;
23416;SDS011;11881;42.432;25.632;2023-11-21T09:17:11;3.80;;;1.70;;
23416;SDS011;11881;42.432;25.632;2023-11-21T09:19:40;3.73;;;1.80;;
23416;SDS011;11881;42.432;25.632;2023-11-21T09:22:06;7.20;;;2.13;;
23416;SDS011;11881;42.432;25.632;2023-11-21T09:24:32;3.03;;;1.43;;
23416;SDS011;11881;42.432;25.632;2023-11-21T09:26:58;4.67;;;2.13;;
23416;SDS011;11881;42.432;25.632;2023-11-21T09:29:25;6.60;;;1.97;;
23416;SDS011;11881;42.432;25.632;2023-11-21T09:31:54;4.00;;;2.30;;
23416;SDS011;11881;42.432;25.632;2023-11-21T09:34:20;3.30;;;1.97;;
23416;SDS011;11881;42.432;25.632;2023-11-21T09:36:46;4.00;;;1.93;;
23416;SDS011;11881;42.432;25.632;2023-11-21T09:39:13;2.83;;;1.97;;
23416;SDS011;11881;42.432;25.632;2023-11-21T09:41:59;2.63;;;2.30;;
23416;SDS011;11881;42.432;25.632;2023-11-21T09:44:46;3.87;;;2.53;;
23416;SDS011;11881;42.432;25.632;2023-11-21T09:47:21;3.93;;;2.23;;
23416;SDS011;11881;42.432;25.632;2023-11-21T09:49:48;3.40;;;2.07;;
23416;SDS011;11881;42.432;25.632;2023-11-21T09:52:26;2.77;;;1.73;;
23416;SDS011;11881;42.432;25.632;2023-11-21T09:54:52;3.20;;;1.97;;
23416;SDS011;11881;42.432;25.632;2023-11-21T09:57:21;2.53;;;1.80;;
23416;SDS011;11881;42.432;25.632;2023-11-21T09:59:52;3.20;;;1.50;;
23416;SDS011;11881;42.432;25.632;2023-11-21T10:02:27;3.30;;;1.40;;
23416;SDS011;11881;42.432;25.632;2023-11-21T10:04:58;6.57;;;2.20;;
23416;SDS011;11881;42.432;25.632;2023-11-21T10:07:25;4.93;;;2.87;;
23416;SDS011;11881;42.432;25.632;2023-11-21T10:09:52;3.47;;;1.40;;
23416;SDS011;11881;42.432;25.632;2023-11-21T10:12:18;3.57;;;1.67;;
23416;SDS011;11881;42.432;25.632;2023-11-21T10:14:48;5.87;;;1.23;;
23416;SDS011;11881;42.432;25.632;2023-11-21T10:17:14;3.10;;;1.60;;
23416;SDS011;11881;42.432;25.632;2023-11-21T10:19:43;1.73;;;1.13;;
23416;SDS011;11881;42.432;25.632;2023-11-21T10:22:12;2.33;;;1.70;;
23416;SDS011;11881;42.432;25.632;2023-11-21T10:24:39;5.37;;;2.30;;
23416;SDS011;11881;42.432;25.632;2023-11-21T10:27:05;8.07;;;1.97;;
23416;SDS011;11881;42.432;25.632;2023-11-21T10:29:30;2.37;;;1.40;;
23416;SDS011;11881;42.432;25.632;2023-11-21T10:32:01;3.17;;;2.00;;
23416;SDS011;11881;42.432;25.632;2023-11-21T10:34:27;5.73;;;1.70;;
23416;SDS011;11881;42.432;25.632;2023-11-21T10:36:52;11.40;;;2.00;;
23416;SDS011;11881;42.432;25.632;2023-11-21T10:39:21;4.47;;;1.87;;
23416;SDS011;11881;42.432;25.632;2023-11-21T10:41:48;6.03;;;1.93;;
23416;SDS011;11881;42.432;25.632;2023-11-21T10:44:15;6.67;;;2.10;;
23416;SDS011;11881;42.432;25.632;2023-11-21T10:46:52;5.63;;;1.90;;
23416;SDS011;11881;42.432;25.632;2023-11-21T10:49:25;6.40;;;2.00;;
23416;SDS011;11881;42.432;25.632;2023-11-21T10:51:52;4.70;;;2.40;;
23416;SDS011;11881;42.432;25.632;2023-11-21T10:54:22;4.60;;;2.43;;
23416;SDS011;11881;42.432;25.632;2023-11-21T10:56:51;2.20;;;1.77;;
23416;SDS011;11881;42.432;25.632;2023-11-21T10:59:22;2.73;;;1.87;;
23416;SDS011;11881;42.432;25.632;2023-11-21T11:01:50;5.00;;;2.27;;
23416;SDS011;11881;42.432;25.632;2023-11-21T11:04:17;4.43;;;1.90;;
23416;SDS011;11881;42.432;25.632;2023-11-21T11:06:44;3.93;;;2.10;;
23416;SDS011;11881;42.432;25.632;2023-11-21T11:09:30;4.13;;;2.50;;
23416;SDS011;11881;42.432;25.632;2023-11-21T11:11:58;4.90;;;2.50;;
23416;SDS011;11881;42.432;25.632;2023-11-21T11:14:24;7.43;;;2.43;;
23416;SDS011;11881;42.432;25.632;2023-11-21T11:16:53;4.93;;;2.10;;
23416;SDS011;11881;42.432;25.632;2023-11-21T11:19:24;9.83;;;2.80;;
23416;SDS011;11881;42.432;25.632;2023-11-21T11:24:41;9.10;;;2.93;;
23416;SDS011;11881;42.432;25.632;2023-11-21T11:32:45;4.10;;;2.73;;
23416;SDS011;11881;42.432;25.632;2023-11-21T11:35:21;4.83;;;2.83;;
23416;SDS011;11881;42.432;25.632;2023-11-21T11:37:58;5.60;;;2.97;;
23416;SDS011;11881;42.432;25.632;2023-11-21T11:40:25;8.70;;;2.70;;
23416;SDS011;11881;42.432;25.632;2023-11-21T11:43:03;6.23;;;3.10;;
23416;SDS011;11881;42.432;25.632;2023-11-21T11:45:32;3.73;;;2.73;;
23416;SDS011;11881;42.432;25.632;2023-11-21T11:48:02;9.17;;;3.97;;
23416;SDS011;11881;42.432;25.632;2023-11-21T11:50:28;8.00;;;3.43;;
23416;SDS011;11881;42.432;25.632;2023-11-21T11:52:55;8.13;;;5.00;;
23416;SDS011;11881;42.432;25.632;2023-11-21T11:55:36;7.77;;;4.07;;
23416;SDS011;11881;42.432;25.632;2023-11-21T11:58:04;8.60;;;3.63;;
23416;SDS011;11881;42.432;25.632;2023-11-21T12:02:58;9.10;;;3.93;;
23416;SDS011;11881;42.432;25.632;2023-11-21T12:05:28;6.90;;;3.97;;
23416;SDS011;11881;42.432;25.632;2023-11-21T12:08:01;9.17;;;4.20;;
23416;SDS011;11881;42.432;25.632;2023-11-21T12:10:31;8.07;;;4.43;;
23416;SDS011;11881;42.432;25.632;2023-11-21T12:13:08;8.67;;;4.07;;
23416;SDS011;11881;42.432;25.632;2023-11-21T12:15:37;8.13;;;4.83;;
23416;SDS011;11881;42.432;25.632;2023-11-21T12:18:03;9.33;;;4.93;;
23416;SDS011;11881;42.432;25.632;2023-11-21T12:20:30;9.23;;;4.27;;
23416;SDS011;11881;42.432;25.632;2023-11-21T12:22:59;8.47;;;4.60;;
23416;SDS011;11881;42.432;25.632;2023-11-21T12:25:26;7.10;;;4.07;;
23416;SDS011;11881;42.432;25.632;2023-11-21T12:27:57;9.03;;;4.30;;
23416;SDS011;11881;42.432;25.632;2023-11-21T12:30:23;8.17;;;3.70;;
23416;SDS011;11881;42.432;25.632;2023-11-21T12:32:53;5.20;;;2.90;;
23416;SDS011;11881;42.432;25.632;2023-11-21T12:35:21;6.17;;;2.90;;
23416;SDS011;11881;42.432;25.632;2023-11-21T12:37:50;4.87;;;3.17;;
23416;SDS011;11881;42.432;25.632;2023-11-21T12:40:17;7.37;;;3.47;;
23416;SDS011;11881;42.432;25.632;2023-11-21T12:42:46;4.53;;;3.10;;
23416;SDS011;11881;42.432;25.632;2023-11-21T12:47:45;19.37;;;7.87;;
23416;SDS011;11881;42.432;25.632;2023-11-21T12:50:12;13.30;;;7.63;;
23416;SDS011;11881;42.432;25.632;2023-11-21T12:52:41;12.07;;;6.33;;
23416;SDS011;11881;42.432;25.632;2023-11-21T12:55:12;14.30;;;6.00;;
23416;SDS011;11881;42.432;25.632;2023-11-21T12:57:50;9.97;;;5.57;;
23416;SDS011;11881;42.432;25.632;2023-11-21T13:00:19;13.13;;;6.13;;
23416;SDS011;11881;42.432;25.632;2023-11-21T13:02:55;13.37;;;5.57;;
23416;SDS011;11881;42.432;25.632;2023-11-21T13:05:28;13.70;;;6.33;;
23416;SDS011;11881;42.432;25.632;2023-11-21T13:07:58;10.63;;;5.23;;
23416;SDS011;11881;42.432;25.632;2023-11-21T13:10:27;11.73;;;4.93;;
23416;SDS011;11881;42.432;25.632;2023-11-21T13:12:58;6.40;;;3.63;;
23416;SDS011;11881;42.432;25.632;2023-11-21T13:15:24;4.27;;;3.00;;
23416;SDS011;11881;42.432;25.632;2023-11-21T13:17:50;6.83;;;3.03;;
23416;SDS011;11881;42.432;25.632;2023-11-21T13:20:18;8.13;;;3.37;;
23416;SDS011;11881;42.432;25.632;2023-11-21T13:22:49;8.43;;;3.07;;
23416;SDS011;11881;42.432;25.632;2023-11-21T13:25:15;7.17;;;3.40;;
23416;SDS011;11881;42.432;25.632;2023-11-21T13:27:43;6.83;;;3.50;;
23416;SDS011;11881;42.432;25.632;2023-11-21T13:30:10;8.80;;;3.80;;
23416;SDS011;11881;42.432;25.632;2023-11-21T13:32:40;7.97;;;3.47;;
23416;SDS011;11881;42.432;25.632;2023-11-21T13:35:06;8.40;;;3.63;;
23416;SDS011;11881;42.432;25.632;2023-11-21T13:37:39;11.00;;;4.37;;
23416;SDS011;11881;42.432;25.632;2023-11-21T13:40:05;9.13;;;4.20;;
23416;SDS011;11881;42.432;25.632;2023-11-21T13:42:39;10.27;;;5.30;;
23416;SDS011;11881;42.432;25.632;2023-11-21T13:45:06;13.20;;;4.73;;
23416;SDS011;11881;42.432;25.632;2023-11-21T13:47:31;12.73;;;4.20;;
23416;SDS011;11881;42.432;25.632;2023-11-21T13:49:59;9.13;;;4.23;;
23416;SDS011;11881;42.432;25.632;2023-11-21T13:52:25;9.37;;;3.77;;
23416;SDS011;11881;42.432;25.632;2023-11-21T13:54:52;8.30;;;3.83;;
23416;SDS011;11881;42.432;25.632;2023-11-21T13:57:18;41.30;;;5.80;;
23416;SDS011;11881;42.432;25.632;2023-11-21T13:59:45;22.47;;;5.20;;
23416;SDS011;11881;42.432;25.632;2023-11-21T14:02:11;14.10;;;4.80;;
23416;SDS011;11881;42.432;25.632;2023-11-21T14:04:43;6.77;;;3.60;;
23416;SDS011;11881;42.432;25.632;2023-11-21T14:07:20;7.47;;;4.03;;
23416;SDS011;11881;42.432;25.632;2023-11-21T14:10:01;5.53;;;3.80;;
23416;SDS011;11881;42.432;25.632;2023-11-21T14:12:28;10.97;;;4.10;;
23416;SDS011;11881;42.432;25.632;2023-11-21T14:14:54;9.33;;;3.93;;
23416;SDS011;11881;42.432;25.632;2023-11-21T14:17:20;14.17;;;4.17;;
23416;SDS011;11881;42.432;25.632;2023-11-21T14:19:48;8.77;;;4.03;;
23416;SDS011;11881;42.432;25.632;2023-11-21T14:22:14;10.17;;;3.70;;
23416;SDS011;11881;42.432;25.632;2023-11-21T14:24:40;15.23;;;4.20;;
23416;SDS011;11881;42.432;25.632;2023-11-21T14:27:10;9.60;;;4.77;;
23416;SDS011;11881;42.432;25.632;2023-11-21T14:29:36;11.33;;;5.70;;
23416;SDS011;11881;42.432;25.632;2023-11-21T14:32:04;16.83;;;6.07;;
23416;SDS011;11881;42.432;25.632;2023-11-21T14:34:30;15.07;;;5.43;;
23416;SDS011;11881;42.432;25.632;2023-11-21T14:36:56;12.60;;;5.90;;
23416;SDS011;11881;42.432;25.632;2023-11-21T14:39:22;14.07;;;5.60;;
23416;SDS011;11881;42.432;25.632;2023-11-21T14:41:53;20.87;;;5.50;;
23416;SDS011;11881;42.432;25.632;2023-11-21T14:44:24;11.17;;;4.83;;